Time;durP1;ratioP1;P1;durP2;ratioP2;P2;SDS_P1;SDS_P2;PMS_P1;PMS_P2;Temp;Humidity;BMP_temperature;BMP_pressure;BME280_temperature;BME280_humidity;BME280_pressure;Samples;Min_cycle;Max_cycle;Signal;HPM_P1;HPM_P2
2020/12/02 00:00:17;;;;;;;1999.90;999.90;;;;;;;;;;5082792;28;20039;-90
2020/12/02 00:02:59;;;;;;;1999.90;999.90;;;;;;;;;;5091420;28;20028;-90
2020/12/02 00:05:25;;;;;;;1999.90;999.90;;;;;;;;;;5090249;28;20036;-90
2020/12/02 00:07:53;;;;;;;1999.90;999.90;;;;;;;;;;5091120;28;20072;-90
2020/12/02 00:10:19;;;;;;;1999.90;999.90;;;;;;;;;;5090719;28;20040;-90
2020/12/02 00:12:45;;;;;;;1999.90;999.90;;;;;;;;;;5093328;28;20075;-92
2020/12/02 00:15:11;;;;;;;1999.90;999.90;;;;;;;;;;5096838;28;20020;-90
2020/12/02 00:17:37;;;;;;;1999.90;999.90;;;;;;;;;;5096556;28;20019;-92
2020/12/02 00:20:06;;;;;;;1999.90;999.90;;;;;;;;;;5097607;28;20020;-91
2020/12/02 00:22:32;;;;;;;1999.90;999.90;;;;;;;;;;5097191;28;20009;-89
2020/12/02 00:24:59;;;;;;;1999.90;999.90;;;;;;;;;;5096783;28;20039;-87
2020/12/02 00:27:29;;;;;;;1999.90;999.90;;;;;;;;;;5096513;28;20113;-91
2020/12/02 00:29:56;;;;;;;1999.90;999.90;;;;;;;;;;5101223;28;20290;-88
2020/12/02 00:32:32;;;;;;;1999.90;999.90;;;;;;;;;;5117369;28;20056;-91
2020/12/02 00:34:59;;;;;;;1999.90;999.90;;;;;;;;;;5117541;28;20016;-89
2020/12/02 00:37:26;;;;;;;1999.90;999.90;;;;;;;;;;5117263;28;20020;-92
2020/12/02 00:39:52;;;;;;;1999.90;999.90;;;;;;;;;;5110395;28;20506;-90
2020/12/02 00:42:19;;;;;;;1999.90;999.90;;;;;;;;;;5093169;28;20495;-92
2020/12/02 00:44:45;;;;;;;1999.90;999.90;;;;;;;;;;5093803;28;20039;-92
2020/12/02 00:47:14;;;;;;;1999.90;999.90;;;;;;;;;;5093776;28;20074;-92
2020/12/02 00:49:40;;;;;;;1999.90;999.90;;;;;;;;;;5094153;28;20043;-92
2020/12/02 00:52:07;;;;;;;1999.90;999.90;;;;;;;;;;5093613;28;20020;-92
2020/12/02 00:54:35;;;;;;;1999.90;999.90;;;;;;;;;;5094233;28;20032;-92
2020/12/02 00:57:01;;;;;;;1999.90;999.90;;;;;;;;;;5091594;28;20031;-93
2020/12/02 00:59:30;;;;;;;1999.90;999.90;;;;;;;;;;5093489;28;20020;-92
2020/12/02 01:02:17;;;;;;;1999.90;999.90;;;;;;;;;;5091276;28;20403;-92
2020/12/02 01:04:42;;;;;;;;;;;;;;;;;;5093690;28;20032;-92
2020/12/02 01:07:09;;;;;;;1999.90;999.90;;;;;;;;;;5092364;28;19908;-92
2020/12/02 01:09:35;;;;;;;1999.90;999.90;;;;;;;;;;5094093;28;20064;-92
2020/12/02 01:12:02;;;;;;;1999.90;999.90;;;;;;;;;;5093811;28;20020;-93
2020/12/02 01:14:28;;;;;;;1999.90;999.90;;;;;;;;;;5092505;28;20030;-92
2020/12/02 01:16:55;;;;;;;1999.90;999.90;;;;;;;;;;5092668;28;20111;-92
2020/12/02 01:19:26;;;;;;;1999.90;999.90;;;;;;;;;;5093161;28;20036;-93
2020/12/02 01:21:55;;;;;;;1999.90;999.90;;;;;;;;;;5095808;28;20048;-91
2020/12/02 01:24:24;;;;;;;1999.90;999.90;;;;;;;;;;5096233;28;20499;-92
2020/12/02 01:26:54;;;;;;;1999.90;999.90;;;;;;;;;;5095312;28;20036;-91
2020/12/02 01:29:21;;;;;;;1999.90;999.90;;;;;;;;;;5097733;28;20024;-92
2020/12/02 01:31:52;;;;;;;1999.90;999.90;;;;;;;;;;5096392;28;20069;-91
2020/12/02 01:34:19;;;;;;;1999.90;999.90;;;;;;;;;;5097007;28;20020;-91
2020/12/02 01:37:04;;;;;;;1999.90;999.90;;;;;;;;;;5096096;28;20047;-92
2020/12/02 01:39:32;;;;;;;1999.90;999.90;;;;;;;;;;5095816;28;20032;-92
2020/12/02 01:41:58;;;;;;;1999.90;999.90;;;;;;;;;;5096742;28;20031;-92
2020/12/02 01:44:24;;;;;;;1999.90;999.90;;;;;;;;;;5096651;28;20066;-93
2020/12/02 01:47:13;;;;;;;1999.90;999.90;;;;;;;;;;5096761;28;20024;-92
2020/12/02 01:49:43;;;;;;;1999.90;999.90;;;;;;;;;;5093825;28;20043;-93
2020/12/02 01:52:22;;;;;;;1999.90;999.90;;;;;;;;;;5096478;28;20028;-92
2020/12/02 01:54:51;;;;;;;1999.90;999.90;;;;;;;;;;5095166;28;20099;-92
2020/12/02 01:57:21;;;;;;;1999.90;999.90;;;;;;;;;;5095520;28;20024;-93
2020/12/02 02:00:13;;;;;;;1999.90;999.90;;;;;;;;;;5096833;28;20024;-92
2020/12/02 02:02:39;;;;;;;1999.90;999.90;;;;;;;;;;5093214;28;20399;-93
2020/12/02 02:05:05;;;;;;;1999.90;999.90;;;;;;;;;;5094803;28;20032;-92
2020/12/02 02:07:32;;;;;;;1999.90;999.90;;;;;;;;;;5095944;28;20046;-92
2020/12/02 02:10:00;;;;;;;1999.90;999.90;;;;;;;;;;5095432;28;20028;-93
2020/12/02 02:12:44;;;;;;;1999.90;999.90;;;;;;;;;;5095397;28;20031;-92
2020/12/02 02:15:23;;;;;;;1999.90;999.90;;;;;;;;;;5096396;28;20020;-92
2020/12/02 02:18:00;;;;;;;1999.90;999.90;;;;;;;;;;5096270;28;20099;-93
2020/12/02 02:20:28;;;;;;;1999.90;999.90;;;;;;;;;;5095303;28;20034;-92
2020/12/02 02:22:55;;;;;;;1999.90;999.90;;;;;;;;;;5094858;28;20143;-92
2020/12/02 02:25:21;;;;;;;1999.90;999.90;;;;;;;;;;5094864;28;20123;-92
2020/12/02 02:27:47;;;;;;;1999.90;999.90;;;;;;;;;;5095888;28;20020;-92
2020/12/02 02:30:14;;;;;;;1999.90;999.90;;;;;;;;;;5088351;28;20024;-91
2020/12/02 02:32:41;;;;;;;1999.90;999.90;;;;;;;;;;5074584;28;20041;-92
2020/12/02 02:35:07;;;;;;;1999.90;999.90;;;;;;;;;;5075305;28;20029;-92
2020/12/02 02:37:33;;;;;;;1999.90;999.90;;;;;;;;;;5074344;28;20111;-92
2020/12/02 02:40:01;;;;;;;1999.90;999.90;;;;;;;;;;5075935;28;20032;-91
2020/12/02 02:42:41;;;;;;;1999.90;999.90;;;;;;;;;;5075655;28;20260;-92
2020/12/02 02:45:18;;;;;;;1999.90;999.90;;;;;;;;;;5074758;28;20040;-92
2020/12/02 02:47:44;;;;;;;1999.90;999.90;;;;;;;;;;5075400;28;20031;-91
2020/12/02 02:50:12;;;;;;;1999.90;999.90;;;;;;;;;;5076281;28;20123;-92
2020/12/02 02:52:39;;;;;;;1999.90;999.90;;;;;;;;;;5075511;28;20024;-92
2020/12/02 02:55:07;;;;;;;1999.90;999.90;;;;;;;;;;5075388;28;20032;-92
2020/12/02 02:57:33;;;;;;;1999.90;999.90;;;;;;;;;;5075578;28;20025;-94
2020/12/02 02:59:59;;;;;;;1999.90;999.90;;;;;;;;;;5076934;28;20047;-91
2020/12/02 03:02:25;;;;;;;1999.90;999.90;;;;;;;;;;5074149;28;20124;-92
2020/12/02 03:04:51;;;;;;;1999.90;999.90;;;;;;;;;;5084293;28;20043;-92
2020/12/02 03:07:17;;;;;;;1999.90;999.90;;;;;;;;;;5097528;28;20564;-92
2020/12/02 03:09:44;;;;;;;1999.90;999.90;;;;;;;;;;5097900;28;20017;-93
2020/12/02 03:12:11;;;;;;;1999.90;999.90;;;;;;;;;;5097537;28;20037;-93
2020/12/02 03:14:41;;;;;;;1999.90;999.90;;;;;;;;;;5083479;28;20420;-92
2020/12/02 03:17:09;;;;;;;1999.90;999.90;;;;;;;;;;5073957;28;20035;-92
2020/12/02 03:19:36;;;;;;;1999.90;999.90;;;;;;;;;;5074859;28;20039;-92
2020/12/02 03:22:06;;;;;;;1999.90;999.90;;;;;;;;;;5073703;28;20074;-92
2020/12/02 03:24:33;;;;;;;1999.90;999.90;;;;;;;;;;5074004;28;20041;-92
2020/12/02 03:26:59;;;;;;;1999.90;999.90;;;;;;;;;;5073691;28;20056;-92
2020/12/02 03:29:25;;;;;;;1999.90;999.90;;;;;;;;;;5075001;28;20044;-92
2020/12/02 03:31:51;;;;;;;1999.90;999.90;;;;;;;;;;5093784;28;20044;-91
2020/12/02 03:34:18;;;;;;;1999.90;999.90;;;;;;;;;;5093528;28;20032;-90
2020/12/02 03:36:44;;;;;;;1999.90;999.90;;;;;;;;;;5093479;28;20027;-92
2020/12/02 03:39:12;;;;;;;1999.90;999.90;;;;;;;;;;5095320;28;20020;-91
2020/12/02 03:41:38;;;;;;;1999.90;999.90;;;;;;;;;;5094152;28;20024;-92
2020/12/02 03:44:05;;;;;;;1999.90;999.90;;;;;;;;;;5092696;28;20036;-92
2020/12/02 03:46:31;;;;;;;1999.90;999.90;;;;;;;;;;5094201;28;20052;-91
2020/12/02 03:48:57;;;;;;;1999.90;999.90;;;;;;;;;;5093900;28;20024;-92
2020/12/02 03:51:24;;;;;;;1999.90;999.90;;;;;;;;;;5093348;28;20043;-92
2020/12/02 03:53:50;;;;;;;1999.90;999.90;;;;;;;;;;5093663;28;20491;-92
2020/12/02 03:56:19;;;;;;;1999.90;999.90;;;;;;;;;;5095191;28;20032;-91
2020/12/02 03:58:45;;;;;;;1999.90;999.90;;;;;;;;;;5095233;28;20034;-92
2020/12/02 04:01:11;;;;;;;1999.90;999.90;;;;;;;;;;5093189;28;20052;-92
2020/12/02 04:03:37;;;;;;;1999.90;999.90;;;;;;;;;;5095009;28;20068;-92
2020/12/02 04:06:04;;;;;;;1999.90;999.90;;;;;;;;;;5094032;28;20027;-92
2020/12/02 04:08:30;;;;;;;1999.90;999.90;;;;;;;;;;5095601;28;20028;-91
2020/12/02 04:10:57;;;;;;;1999.90;999.90;;;;;;;;;;5094092;28;20020;-91
2020/12/02 04:13:23;;;;;;;1999.90;999.90;;;;;;;;;;5094211;28;20391;-91
2020/12/02 04:15:49;;;;;;;1999.90;999.90;;;;;;;;;;5094763;28;20621;-91
2020/12/02 04:18:15;;;;;;;1999.90;999.90;;;;;;;;;;5093779;28;20028;-91
2020/12/02 04:20:41;;;;;;;1999.90;999.90;;;;;;;;;;5093395;28;20081;-91
2020/12/02 04:23:07;;;;;;;1999.90;999.90;;;;;;;;;;5092831;28;20062;-92
2020/12/02 04:25:33;;;;;;;1999.90;999.90;;;;;;;;;;5094434;28;20035;-92
2020/12/02 04:27:59;;;;;;;1999.90;999.90;;;;;;;;;;5093636;28;20031;-91
2020/12/02 04:30:25;;;;;;;1999.90;999.90;;;;;;;;;;5084704;28;20021;-91
2020/12/02 04:32:51;;;;;;;1999.90;999.90;;;;;;;;;;5072404;28;20045;-91
2020/12/02 04:35:18;;;;;;;1999.90;999.90;;;;;;;;;;5073433;28;20024;-92
2020/12/02 04:37:44;;;;;;;1999.90;999.90;;;;;;;;;;5072958;28;20025;-91
2020/12/02 04:40:15;;;;;;;1999.90;999.90;;;;;;;;;;5074588;28;20151;-92
2020/12/02 04:42:43;;;;;;;1999.90;999.90;;;;;;;;;;5073213;28;20020;-91
2020/12/02 04:45:12;;;;;;;1999.90;999.90;;;;;;;;;;5073588;28;20032;-92
2020/12/02 04:47:41;;;;;;;1999.90;999.90;;;;;;;;;;5073230;28;20017;-90
2020/12/02 04:50:21;;;;;;;1999.90;999.90;;;;;;;;;;5072778;28;20468;-89
2020/12/02 04:53:06;;;;;;;1999.90;999.90;;;;;;;;;;5071800;28;20064;-91
2020/12/02 04:55:32;;;;;;;1999.90;999.90;;;;;;;;;;5073382;28;20065;-91
2020/12/02 04:57:58;;;;;;;1999.90;999.90;;;;;;;;;;5077405;28;20067;-91
2020/12/02 05:00:27;;;;;;;1999.90;999.90;;;;;;;;;;5078249;28;20033;-91
2020/12/02 05:02:53;;;;;;;1999.90;999.90;;;;;;;;;;5075852;28;20024;-91
2020/12/02 05:05:20;;;;;;;1999.90;999.90;;;;;;;;;;5076379;28;20036;-91
2020/12/02 05:07:47;;;;;;;1999.90;999.90;;;;;;;;;;5077920;28;20032;-90
2020/12/02 05:10:14;;;;;;;1999.90;999.90;;;;;;;;;;5077772;28;20067;-91
2020/12/02 05:12:46;;;;;;;1999.90;999.90;;;;;;;;;;5076817;28;20028;-89
2020/12/02 05:15:21;;;;;;;1999.90;999.90;;;;;;;;;;5077266;28;20102;-89
2020/12/02 05:18:07;;;;;;;1999.90;999.90;;;;;;;;;;5077174;28;20020;-89
2020/12/02 05:20:34;;;;;;;1999.90;999.90;;;;;;;;;;5070497;28;20120;-89
2020/12/02 05:23:09;;;;;;;1999.90;999.90;;;;;;;;;;5074408;28;20024;-90
2020/12/02 05:25:35;;;;;;;1999.90;999.90;;;;;;;;;;5075911;28;20052;-90
2020/12/02 05:28:20;;;;;;;1999.90;999.90;;;;;;;;;;5075107;28;20048;-90
2020/12/02 05:30:46;;;;;;;1999.90;999.90;;;;;;;;;;5085705;28;20047;-90
2020/12/02 05:33:12;;;;;;;1999.90;999.90;;;;;;;;;;5096985;28;20492;-90
2020/12/02 05:35:48;;;;;;;1999.90;999.90;;;;;;;;;;5113158;28;20077;-90
2020/12/02 05:38:20;;;;;;;1999.90;999.90;;;;;;;;;;5116175;28;20028;-90
2020/12/02 05:40:46;;;;;;;1999.90;999.90;;;;;;;;;;5116857;28;20032;-90
2020/12/02 05:45:58;;;;;;;1999.90;999.90;;;;;;;;;;5053834;28;20050;-91
2020/12/02 05:48:28;;;;;;;1999.90;999.90;;;;;;;;;;5046918;28;20036;-86
2020/12/02 05:50:56;;;;;;;1999.90;999.90;;;;;;;;;;5019571;28;20022;-88
2020/12/02 05:53:30;;;;;;;1999.90;999.90;;;;;;;;;;5020576;28;20470;-92
2020/12/02 05:55:57;;;;;;;1999.90;999.90;;;;;;;;;;5016230;28;20054;-88
2020/12/02 05:58:28;;;;;;;1999.90;999.90;;;;;;;;;;5016026;28;20033;-82
2020/12/02 06:00:54;;;;;;;1999.90;999.90;;;;;;;;;;5017708;28;20029;-90
2020/12/02 06:03:30;;;;;;;1999.90;999.90;;;;;;;;;;5015355;28;20038;-86
2020/12/02 06:06:00;;;;;;;1999.90;999.90;;;;;;;;;;5010393;28;20028;-87
2020/12/02 06:08:37;;;;;;;1999.90;999.90;;;;;;;;;;5022013;28;20058;-84
2020/12/02 06:11:18;;;;;;;1999.90;999.90;;;;;;;;;;5039510;28;20069;-85
2020/12/02 06:13:46;;;;;;;1999.90;999.90;;;;;;;;;;5039935;28;20018;-89
2020/12/02 06:16:13;;;;;;;1999.90;999.90;;;;;;;;;;5021435;28;20010;-87
2020/12/02 06:18:39;;;;;;;1999.90;999.90;;;;;;;;;;5040582;28;20014;-88
2020/12/02 06:21:07;;;;;;;1999.90;999.90;;;;;;;;;;5029662;28;20018;-89
2020/12/02 06:23:43;;;;;;;1999.90;999.90;;;;;;;;;;5036857;28;20037;-89
2020/12/02 06:26:09;;;;;;;1999.90;999.90;;;;;;;;;;5039261;28;20094;-87
2020/12/02 06:28:35;;;;;;;1999.90;999.90;;;;;;;;;;5053987;28;20092;-84
2020/12/02 06:31:06;;;;;;;1999.90;999.90;;;;;;;;;;5040841;28;20033;-86
2020/12/02 06:33:43;;;;;;;1999.90;999.90;;;;;;;;;;5021033;28;20042;-87
2020/12/02 06:36:11;;;;;;;1999.90;999.90;;;;;;;;;;5022176;28;20041;-85
2020/12/02 06:38:37;;;;;;;1999.90;999.90;;;;;;;;;;5036962;28;20033;-83
2020/12/02 06:41:03;;;;;;;1999.90;999.90;;;;;;;;;;5039013;28;20219;-86
2020/12/02 06:43:30;;;;;;;1999.90;999.90;;;;;;;;;;5023316;28;20052;-87
2020/12/02 06:46:03;;;;;;;1999.90;999.90;;;;;;;;;;5035254;28;20112;-86
2020/12/02 06:48:34;;;;;;;1999.90;999.90;;;;;;;;;;5035672;28;20034;-85
2020/12/02 06:51:00;;;;;;;1999.90;999.90;;;;;;;;;;5003339;28;20033;-85
2020/12/02 06:53:27;;;;;;;1999.90;999.90;;;;;;;;;;5014911;28;20026;-83
2020/12/02 06:56:00;;;;;;;1999.90;999.90;;;;;;;;;;5026146;28;20037;-92
2020/12/02 06:58:27;;;;;;;1999.90;999.90;;;;;;;;;;5020575;28;20018;-83
2020/12/02 07:00:54;;;;;;;1999.90;999.90;;;;;;;;;;5025746;28;20032;-88
2020/12/02 07:03:32;;;;;;;1999.90;999.90;;;;;;;;;;5022207;28;20041;-84
2020/12/02 07:06:16;;;;;;;1999.90;999.90;;;;;;;;;;5025993;28;20026;-87
2020/12/02 07:08:44;;;;;;;1999.90;999.90;;;;;;;;;;5009126;28;20109;-88
2020/12/02 07:11:20;;;;;;;1999.90;999.90;;;;;;;;;;5008239;28;20021;-87
2020/12/02 07:13:48;;;;;;;1999.90;999.90;;;;;;;;;;5025632;28;20032;-88
2020/12/02 07:16:14;;;;;;;1999.90;999.90;;;;;;;;;;5030997;28;20014;-87
2020/12/02 07:18:40;;;;;;;1999.90;999.90;;;;;;;;;;5013212;28;20038;-85
2020/12/02 07:21:20;;;;;;;1999.90;999.90;;;;;;;;;;5028418;28;20034;-86
2020/12/02 07:23:46;;;;;;;1999.90;999.90;;;;;;;;;;5029380;28;20038;-87
2020/12/02 07:26:13;;;;;;;1999.90;999.90;;;;;;;;;;5031926;28;20470;-87
2020/12/02 07:28:39;;;;;;;1999.90;999.90;;;;;;;;;;5031529;28;20085;-88
2020/12/02 07:31:31;;;;;;;1999.90;999.90;;;;;;;;;;5035409;28;20030;-88
2020/12/02 07:34:16;;;;;;;1999.90;999.90;;;;;;;;;;5011881;28;20034;-87
2020/12/02 07:36:43;;;;;;;1999.90;999.90;;;;;;;;;;5025535;28;20038;-88
2020/12/02 07:39:16;;;;;;;1999.90;999.90;;;;;;;;;;5005947;28;20056;-92
2020/12/02 07:41:58;;;;;;;1999.90;999.90;;;;;;;;;;5007655;28;20026;-92
2020/12/02 07:44:26;;;;;;;1999.90;999.90;;;;;;;;;;5024611;28;20050;-91
2020/12/02 07:46:53;;;;;;;1999.90;999.90;;;;;;;;;;5025239;28;20018;-91
2020/12/02 07:49:19;;;;;;;1999.90;999.90;;;;;;;;;;5005609;28;20045;-89
2020/12/02 07:51:51;;;;;;;1999.90;999.90;;;;;;;;;;5027172;28;20418;-88
2020/12/02 07:54:20;;;;;;;1999.90;999.90;;;;;;;;;;5034353;28;20095;-89
2020/12/02 07:56:47;;;;;;;1999.90;999.90;;;;;;;;;;5021843;28;20053;-87
2020/12/02 07:59:21;;;;;;;1999.90;999.90;;;;;;;;;;5015381;28;20029;-89
2020/12/02 08:01:47;;;;;;;1999.90;999.90;;;;;;;;;;5011847;28;20073;-86
2020/12/02 08:04:22;;;;;;;1999.90;999.90;;;;;;;;;;5002401;28;20661;-86
2020/12/02 08:06:56;;;;;;;1999.90;999.90;;;;;;;;;;5018538;28;20028;-86
2020/12/02 08:09:22;;;;;;;1999.90;999.90;;;;;;;;;;5013431;28;20060;-85
2020/12/02 08:11:52;;;;;;;1999.90;999.90;;;;;;;;;;4996164;28;20053;-86
2020/12/02 08:14:26;;;;;;;1999.90;999.90;;;;;;;;;;5014606;28;20494;-87
2020/12/02 08:16:54;;;;;;;1999.90;999.90;;;;;;;;;;5013366;28;20032;-88
2020/12/02 08:19:30;;;;;;;1999.90;999.90;;;;;;;;;;5019904;28;20025;-88
2020/12/02 08:21:56;;;;;;;1999.90;999.90;;;;;;;;;;5027771;28;20014;-89
2020/12/02 08:24:25;;;;;;;1999.90;999.90;;;;;;;;;;5023552;28;20077;-89
2020/12/02 08:26:52;;;;;;;1999.90;999.90;;;;;;;;;;5020950;28;20025;-89
2020/12/02 08:29:24;;;;;;;1999.90;999.90;;;;;;;;;;5024439;28;20050;-89
2020/12/02 08:31:59;;;;;;;1999.90;999.90;;;;;;;;;;5002666;28;20090;-89
2020/12/02 08:34:25;;;;;;;1999.90;999.90;;;;;;;;;;5021640;28;20029;-89
2020/12/02 08:37:11;;;;;;;1999.90;999.90;;;;;;;;;;5002775;28;20026;-90
2020/12/02 08:39:41;;;;;;;1999.90;999.90;;;;;;;;;;5023674;28;20022;-88
2020/12/02 08:42:11;;;;;;;1999.90;999.90;;;;;;;;;;5013495;28;20025;-88
2020/12/02 08:44:37;;;;;;;1999.90;999.90;;;;;;;;;;5027240;28;20410;-87
2020/12/02 08:47:08;;;;;;;1999.90;999.90;;;;;;;;;;5010615;28;20032;-89
2020/12/02 08:49:35;;;;;;;1999.90;999.90;;;;;;;;;;5027829;28;20042;-89
2020/12/02 08:52:02;;;;;;;1999.90;999.90;;;;;;;;;;5028158;28;20064;-89
2020/12/02 08:54:28;;;;;;;1999.90;999.90;;;;;;;;;;5028772;28;20053;-88
2020/12/02 08:57:05;;;;;;;1999.90;999.90;;;;;;;;;;5013845;28;20114;-88
2020/12/02 08:59:31;;;;;;;1999.90;999.90;;;;;;;;;;5034251;28;20036;-88
2020/12/02 09:02:01;;;;;;;1999.90;999.90;;;;;;;;;;5022537;28;20030;-88
2020/12/02 09:04:27;;;;;;;1999.90;999.90;;;;;;;;;;5019541;28;20037;-88
2020/12/02 09:06:53;;;;;;;1999.90;999.90;;;;;;;;;;5036920;28;20021;-88
2020/12/02 09:09:19;;;;;;;1999.90;999.90;;;;;;;;;;5032299;28;20064;-89
2020/12/02 09:11:45;;;;;;;1999.90;999.90;;;;;;;;;;5033780;28;20385;-88
2020/12/02 09:14:11;;;;;;;1999.90;999.90;;;;;;;;;;5015162;28;20104;-87
2020/12/02 09:16:39;;;;;;;1999.90;999.90;;;;;;;;;;5012339;28;20022;-89
2020/12/02 09:19:06;;;;;;;1999.90;999.90;;;;;;;;;;5013406;28;20030;-89
2020/12/02 09:21:32;;;;;;;1999.90;999.90;;;;;;;;;;5009788;28;20114;-88
2020/12/02 09:23:59;;;;;;;1999.90;999.90;;;;;;;;;;5012788;28;20125;-87
2020/12/02 09:26:27;;;;;;;1999.90;999.90;;;;;;;;;;4995665;28;20018;-89
2020/12/02 09:28:54;;;;;;;1999.90;999.90;;;;;;;;;;5014126;28;20030;-88
2020/12/02 09:31:21;;;;;;;1999.90;999.90;;;;;;;;;;5012395;28;20024;-89
2020/12/02 09:33:48;;;;;;;1999.90;999.90;;;;;;;;;;5016719;28;20088;-89
2020/12/02 09:36:14;;;;;;;1999.90;999.90;;;;;;;;;;5018034;28;20084;-89
2020/12/02 09:38:40;;;;;;;1999.90;999.90;;;;;;;;;;5017198;28;20057;-88
2020/12/02 09:41:23;;;;;;;1999.90;999.90;;;;;;;;;;5033871;28;20030;-88
2020/12/02 09:44:09;;;;;;;1999.90;999.90;;;;;;;;;;5020323;28;20037;-89
2020/12/02 09:46:35;;;;;;;1999.90;999.90;;;;;;;;;;5019508;28;20030;-88
2020/12/02 09:49:02;;;;;;;1999.90;999.90;;;;;;;;;;5001348;28;20100;-87
2020/12/02 09:51:30;;;;;;;1999.90;999.90;;;;;;;;;;5019808;28;20022;-88
2020/12/02 09:53:57;;;;;;;1999.90;999.90;;;;;;;;;;5020874;28;20021;-90
2020/12/02 09:56:25;;;;;;;1999.90;999.90;;;;;;;;;;5001119;28;20061;-89
2020/12/02 09:58:51;;;;;;;1999.90;999.90;;;;;;;;;;5005649;28;20024;-89
2020/12/02 10:01:22;;;;;;;1999.90;999.90;;;;;;;;;;5030022;28;20032;-90
2020/12/02 10:04:07;;;;;;;1999.90;999.90;;;;;;;;;;5036269;28;20053;-89
2020/12/02 10:06:41;;;;;;;1999.90;999.90;;;;;;;;;;5021839;28;20034;-90
2020/12/02 10:09:07;;;;;;;1999.90;999.90;;;;;;;;;;5023397;28;20022;-89
2020/12/02 10:11:36;;;;;;;1999.90;999.90;;;;;;;;;;5033758;28;20084;-89
2020/12/02 10:14:05;;;;;;;1999.90;999.90;;;;;;;;;;5042076;28;20029;-89
2020/12/02 10:16:35;;;;;;;1999.90;999.90;;;;;;;;;;5015697;28;20494;-88
2020/12/02 10:19:20;;;;;;;1999.90;999.90;;;;;;;;;;5002282;28;20057;-89
2020/12/02 10:21:46;;;;;;;1999.90;999.90;;;;;;;;;;5019485;28;20105;-89
2020/12/02 10:24:19;;;;;;;1999.90;999.90;;;;;;;;;;5018661;28;20085;-88
2020/12/02 10:26:45;;;;;;;1999.90;999.90;;;;;;;;;;5001452;28;20091;-88
2020/12/02 10:29:32;;;;;;;1999.90;999.90;;;;;;;;;;5022886;28;20034;-88
2020/12/02 10:32:06;;;;;;;1999.90;999.90;;;;;;;;;;5021939;28;20022;-89
2020/12/02 10:34:37;;;;;;;1999.90;999.90;;;;;;;;;;5023719;28;20061;-89
2020/12/02 10:37:06;;;;;;;1999.90;999.90;;;;;;;;;;5024040;28;20362;-87
2020/12/02 10:39:33;;;;;;;1999.90;999.90;;;;;;;;;;5020424;28;20080;-88
2020/12/02 10:42:17;;;;;;;1999.90;999.90;;;;;;;;;;5014671;28;20022;-90
2020/12/02 10:44:56;;;;;;;1999.90;999.90;;;;;;;;;;5015882;28;20045;-92
2020/12/02 10:47:47;;;;;;;1999.90;999.90;;;;;;;;;;5015527;28;20092;-89
2020/12/02 10:50:15;;;;;;;1999.90;999.90;;;;;;;;;;5016396;28;20111;-91
2020/12/02 10:52:42;;;;;;;1999.90;999.90;;;;;;;;;;4997897;28;20030;-85
2020/12/02 10:55:12;;;;;;;1999.90;999.90;;;;;;;;;;5012338;28;20033;-84
2020/12/02 10:57:38;;;;;;;1999.90;999.90;;;;;;;;;;5017319;28;20029;-93
2020/12/02 11:00:05;;;;;;;1999.90;999.90;;;;;;;;;;5018732;28;20474;-88
2020/12/02 11:02:31;;;;;;;1999.90;999.90;;;;;;;;;;5028753;28;20071;-90
2020/12/02 11:04:58;;;;;;;1999.90;999.90;;;;;;;;;;5044738;28;20063;-91
2020/12/02 11:07:45;;;;;;;1999.90;999.90;;;;;;;;;;5025853;28;20025;-90
2020/12/02 11:10:15;;;;;;;1999.90;999.90;;;;;;;;;;5046912;28;20026;-91
2020/12/02 11:12:53;;;;;;;1999.90;999.90;;;;;;;;;;5043767;28;20029;-91
2020/12/02 11:15:19;;;;;;;1999.90;999.90;;;;;;;;;;5043821;28;20033;-91
2020/12/02 11:17:58;;;;;;;1999.90;999.90;;;;;;;;;;5039510;28;20029;-88
2020/12/02 11:20:47;;;;;;;1999.90;999.90;;;;;;;;;;5032492;28;20018;-87
2020/12/02 11:23:29;;;;;;;1999.90;999.90;;;;;;;;;;4955069;28;20041;-82
2020/12/02 11:26:03;;;;;;;1999.90;999.90;;;;;;;;;;5014634;28;20034;-86
2020/12/02 11:28:29;;;;;;;1999.90;999.90;;;;;;;;;;5000259;28;20025;-87
2020/12/02 11:30:59;;;;;;;1999.90;999.90;;;;;;;;;;4999874;28;20026;-82
2020/12/02 11:33:50;;;;;;;1999.90;999.90;;;;;;;;;;5003381;28;20038;-85
2020/12/02 11:36:37;;;;;;;1999.90;999.90;;;;;;;;;;5003003;28;20104;-87
2020/12/02 11:39:03;;;;;;;;;;;;;;;;;;4947037;28;20274;-85
2020/12/02 11:41:37;;;;;;;1999.90;999.90;;;;;;;;;;4995972;28;19916;-85
2020/12/02 11:44:07;;;;;;;1999.90;999.90;;;;;;;;;;4995892;28;20108;-85
2020/12/02 11:46:34;;;;;;;1999.90;999.90;;;;;;;;;;5010553;28;20083;-84
2020/12/02 11:49:09;;;;;;;1999.90;999.90;;;;;;;;;;4994105;28;20029;-86
2020/12/02 11:51:53;;;;;;;1999.90;999.90;;;;;;;;;;4993847;28;20482;-85
2020/12/02 11:54:21;;;;;;;1999.90;999.90;;;;;;;;;;5018330;28;20018;-90
2020/12/02 11:56:51;;;;;;;1999.90;999.90;;;;;;;;;;5034572;28;20567;-89
2020/12/02 11:59:17;;;;;;;1999.90;999.90;;;;;;;;;;5022495;28;20054;-84
2020/12/02 12:01:53;;;;;;;1999.90;999.90;;;;;;;;;;5017349;28;20030;-83
2020/12/02 12:04:27;;;;;;;1999.90;999.90;;;;;;;;;;4998001;28;20042;-83
2020/12/02 12:06:54;;;;;;;1999.90;999.90;;;;;;;;;;4998947;28;20110;-83
2020/12/02 12:09:24;;;;;;;1999.90;999.90;;;;;;;;;;4981850;28;20022;-82
2020/12/02 12:11:50;;;;;;;1999.90;999.90;;;;;;;;;;5013495;28;20687;-82
2020/12/02 12:14:28;;;;;;;1999.90;999.90;;;;;;;;;;5007214;28;20021;-82
2020/12/02 12:17:05;;;;;;;1999.90;999.90;;;;;;;;;;4995903;28;20042;-83
2020/12/02 12:19:41;;;;;;;1999.90;999.90;;;;;;;;;;5012729;28;20096;-83
2020/12/02 12:22:13;;;;;;;1999.90;999.90;;;;;;;;;;5018038;28;20101;-83
2020/12/02 12:24:44;;;;;;;1999.90;999.90;;;;;;;;;;4987287;28;20485;-82
2020/12/02 12:27:12;;;;;;;1999.90;999.90;;;;;;;;;;5015651;28;20025;-81
2020/12/02 12:29:38;;;;;;;1999.90;999.90;;;;;;;;;;5020039;28;20026;-83
2020/12/02 12:32:11;;;;;;;1999.90;999.90;;;;;;;;;;5011404;28;20025;-82
2020/12/02 12:34:48;;;;;;;1999.90;999.90;;;;;;;;;;5016811;28;20090;-81
2020/12/02 12:37:23;;;;;;;1999.90;999.90;;;;;;;;;;5029234;28;20045;-82
2020/12/02 12:39:54;;;;;;;1999.90;999.90;;;;;;;;;;5011746;28;20450;-85
2020/12/02 12:42:40;;;;;;;1999.90;999.90;;;;;;;;;;5011284;28;20021;-85
2020/12/02 12:47:58;;;;;;;1999.90;999.90;;;;;;;;;;1296306;26;20045;-83
2020/12/02 12:50:25;;;;;;;1999.90;999.90;;;;;;;;;;5100226;28;20035;-83
2020/12/02 12:52:52;;;;;;;1999.90;999.90;;;;;;;;;;5090174;28;20037;-82
2020/12/02 12:55:19;;;;;;;1999.90;999.90;;;;;;;;;;5076375;28;20510;-82
2020/12/02 12:57:50;;;;;;;1999.90;999.90;;;;;;;;;;5079498;28;20028;-82
2020/12/02 13:00:18;;;;;;;1999.90;999.90;;;;;;;;;;5089346;28;20120;-83
2020/12/02 13:02:44;;;;;;;1999.90;999.90;;;;;;;;;;5092699;28;20013;-81
2020/12/02 13:05:14;;;;;;;1999.90;999.90;;;;;;;;;;5080227;28;20048;-84
2020/12/02 13:07:42;;;;;;;1999.90;999.90;;;;;;;;;;5076648;28;20170;-84
2020/12/02 13:10:13;;;;;;;1999.90;999.90;;;;;;;;;;5062558;28;20044;-83
2020/12/02 13:12:42;;;;;;;1999.90;999.90;;;;;;;;;;5080103;28;20024;-84
2020/12/02 13:15:30;;;;;;;1999.90;999.90;;;;;;;;;;5081537;28;20033;-82
2020/12/02 13:18:29;;;;;;;1999.90;999.90;;;;;;;;;;5199825;22;20036;-78
2020/12/02 14:00:23;;;;;;;1999.90;999.90;;;;;;;;;;5054660;28;19925;-89
2020/12/02 14:03:41;;;;;;;1999.90;999.90;;;;;;;;;;5020966;28;20026;-93
2020/12/02 14:06:25;;;;;;;1999.90;999.90;;;;;;;;;;4981324;28;20054;-93
2020/12/02 14:09:26;;;;;;;1999.90;999.90;;;;;;;;;;4982173;28;20018;-90
2020/12/02 14:12:25;;;;;;;1999.90;999.90;;;;;;;;;;4981676;28;20016;-88
2020/12/02 14:15:01;;;;;;;1999.90;999.90;;;;;;;;;;4991375;28;20015;-87
2020/12/02 14:17:28;;;;;;;1999.90;999.90;;;;;;;;;;5012349;28;20070;-94
2020/12/02 14:19:54;;;;;;;1999.90;999.90;;;;;;;;;;4983075;28;20066;-93
2020/12/02 14:22:24;;;;;;;1999.90;999.90;;;;;;;;;;4978635;28;20030;-94
2020/12/02 14:24:52;;;;;;;1999.90;999.90;;;;;;;;;;5038713;28;20037;-94
2020/12/02 14:27:19;;;;;;;1999.90;999.90;;;;;;;;;;5038995;28;20492;-93
2020/12/02 14:29:46;;;;;;;1999.90;999.90;;;;;;;;;;5038472;28;20034;-94
2020/12/02 14:32:48;;;;;;;1999.90;999.90;;;;;;;;;;5035801;28;20022;-94
2020/12/02 14:35:39;;;;;;;1999.90;999.90;;;;;;;;;;5057956;28;20006;-90
2020/12/02 14:38:34;;;;;;;1999.90;999.90;;;;;;;;;;5070533;28;20028;-93
2020/12/02 14:41:21;;;;;;;1999.90;999.90;;;;;;;;;;5053387;28;20026;-94
2020/12/02 14:43:47;;;;;;;1999.90;999.90;;;;;;;;;;5039869;28;20513;-94
2020/12/02 14:46:13;;;;;;;1999.90;999.90;;;;;;;;;;5025870;28;20030;-93